Beautiful Rena — C6YE7 — position and weather

sailwx.info

Track history (hours):
 
Tides and Currents Weather Stations Pressure Air Temp Water Temp Dewpoint Dewpoint Depression Visibility Wind Speed Wind Dir Waves Ship Positions

Beautiful Rena

Last reported at 2014-Nov-20 10:10 UTC. Time now 2014-Nov-21 16:17 UTC.
Position N 34°55' E 119°54'.

Length 190 m; draft 12.7 m.

Type: Cargo ship. MMSI: 311030200.

Date/timePositionNaut miles runAvg speedWind from/ knotsBaromVisibWave heightAir tempDewpointWater temp
2014-Nov-20 10:10N 34°55' E 119°54'711.6
2014-Nov-20 09:32N 34°51' E 119°47'10 9.9
2014-Nov-20 08:33N 34°47' E 119°36'10 9.6
2014-Nov-20 07:33N 34°45' E 119°25'2 1.5
2014-Nov-20 06:31N 34°45' E 119°23'0 0.0
2014-Nov-20 05:25N 34°45' E 119°23'0 0.0
2014-Nov-20 04:31N 34°45' E 119°23'0 0.0
2014-Nov-20 03:31N 34°45' E 119°23'0 0.0
2014-Nov-20 02:25N 34°45' E 119°23'0 0.0
2014-Nov-20 01:31N 34°45' E 119°23'0 0.0
2014-Nov-20 00:25N 34°45' E 119°23'0 0.0
2014-Nov-19 23:31N 34°45' E 119°23'0 0.0
2014-Nov-19 22:31N 34°45' E 119°23'0 0.0
2014-Nov-19 21:31N 34°45' E 119°23'0 0.0
2014-Nov-19 20:31N 34°45' E 119°23'0 0.0
2014-Nov-19 19:31N 34°45' E 119°23'0 0.0
2014-Nov-19 18:31N 34°45' E 119°23'0 0.0
2014-Nov-19 17:31N 34°45' E 119°23'0 0.0
2014-Nov-19 16:31N 34°45' E 119°23'0 0.0
2014-Nov-19 15:31N 34°45' E 119°23'0 0.0
2014-Nov-19 14:31N 34°45' E 119°23'0 0.0
2014-Nov-19 13:25N 34°45' E 119°23'0 0.0
2014-Nov-19 12:31N 34°45' E 119°23'0 0.0
2014-Nov-19 11:31N 34°45' E 119°23'0 0.0
2014-Nov-19 10:31N 34°45' E 119°23'0 0.0
2014-Nov-19 09:31N 34°45' E 119°23'0 0.0
2014-Nov-19 08:31N 34°45' E 119°23'0 0.0
2014-Nov-19 07:30N 34°45' E 119°23'0 0.0
2014-Nov-19 06:31N 34°45' E 119°23'0 0.0
2014-Nov-19 05:31N 34°45' E 119°23'0 0.0
2014-Nov-19 04:31N 34°45' E 119°23'0 0.0
2014-Nov-19 03:30N 34°45' E 119°23'0 0.0
2014-Nov-19 02:31N 34°45' E 119°23'0 0.0
2014-Nov-19 01:31N 34°45' E 119°23'0 0.0
2014-Nov-19 00:31N 34°45' E 119°23'0 0.0
2014-Nov-18 23:31N 34°45' E 119°23'0 0.0
2014-Nov-18 22:31N 34°45' E 119°23'0 0.0
2014-Nov-18 21:25N 34°45' E 119°23'0 0.0
2014-Nov-18 20:31N 34°45' E 119°23'0 0.0
2014-Nov-18 19:31N 34°45' E 119°23'0 0.0
2014-Nov-18 18:25N 34°45' E 119°23'0 0.0
2014-Nov-18 17:31N 34°45' E 119°23'0 0.0
2014-Nov-18 16:30N 34°45' E 119°23'0 0.0
2014-Nov-18 15:25N 34°45' E 119°23'0 0.0
2014-Nov-18 14:31N 34°45' E 119°23'0 0.0
2014-Nov-18 13:31N 34°45' E 119°23'0 0.0
2014-Nov-18 12:25N 34°45' E 119°23'0 0.0
2014-Nov-18 11:31N 34°45' E 119°23'0 0.0
2014-Nov-18 09:19N 34°45' E 119°23'0 0.0
2014-Nov-18 08:25N 34°45' E 119°23'0 0.0
2014-Nov-18 07:30N 34°45' E 119°23'0 0.0
2014-Nov-18 06:31N 34°45' E 119°23'0 0.0
2014-Nov-18 05:19N 34°45' E 119°23'0 0.0
2014-Nov-18 04:25N 34°45' E 119°23'0 0.0
2014-Nov-18 03:30N 34°45' E 119°23'0 0.0
2014-Nov-18 02:31N 34°45' E 119°23'0 0.0
2014-Nov-18 01:31N 34°45' E 119°23'0 0.0
2014-Nov-18 00:31N 34°45' E 119°23'0 0.0
2014-Nov-17 23:31N 34°45' E 119°23'0 0.0
2014-Nov-17 22:30N 34°45' E 119°23'0 0.0
2014-Nov-17 21:31N 34°45' E 119°23'0 0.0
2014-Nov-17 20:25N 34°45' E 119°23'0 0.0
2014-Nov-17 19:31N 34°45' E 119°23'0 0.0
2014-Nov-17 18:31N 34°45' E 119°23'0 0.0
2014-Nov-17 17:31N 34°45' E 119°23'0 0.0
2014-Nov-17 16:31N 34°45' E 119°23'0 0.0
2014-Nov-17 15:31N 34°45' E 119°23'0 0.0
2014-Nov-17 14:31N 34°45' E 119°23'0 0.0
2014-Nov-17 13:31N 34°45' E 119°23'0 0.0
2014-Nov-17 12:30N 34°45' E 119°23'0 0.0
2014-Nov-17 11:31N 34°45' E 119°23'0 0.0
2014-Nov-17 10:31N 34°45' E 119°23'0 0.0
2014-Nov-17 09:31N 34°45' E 119°23'0 0.0
2014-Nov-17 08:31N 34°45' E 119°23'0 0.0
2014-Nov-17 07:33N 34°45' E 119°23'5 4.8
2014-Nov-17 06:33N 34°45' E 119°28'9 8.9
2014-Nov-17 05:33N 34°48' E 119°39'6 6.1
2014-Nov-17 04:33N 34°51' E 119°45'3 0.7
2014-Nov-17 00:29N 34°53' E 119°47'0 0.0
2014-Nov-16 22:17N 34°53' E 119°47'0 0.0
2014-Nov-16 21:29N 34°53' E 119°47'0 0.0
2014-Nov-16 20:23N 34°53' E 119°47'0 0.0
2014-Nov-16 19:05N 34°53' E 119°47'0 0.1
2014-Nov-16 18:29N 34°53' E 119°47'0 0.0
2014-Nov-16 17:29N 34°53' E 119°47'0 0.0
2014-Nov-16 16:11N 34°53' E 119°47'0 0.1
2014-Nov-16 15:23N 34°53' E 119°47'0 0.0
2014-Nov-16 14:29N 34°53' E 119°47'0 0.1
2014-Nov-16 12:29N 34°53' E 119°47'0 0.0
2014-Nov-16 10:17N 34°54' E 119°47'0 0.0
2014-Nov-16 09:23N 34°54' E 119°47'0 0.0
2014-Nov-16 08:29N 34°54' E 119°47'0 0.0
2014-Nov-16 07:29N 34°54' E 119°47'0 0.0
2014-Nov-16 06:29N 34°53' E 119°47'0 0.1
2014-Nov-16 05:29N 34°53' E 119°47'0 0.0
2014-Nov-16 04:23N 34°53' E 119°47'0 0.1
2014-Nov-16 03:23N 34°53' E 119°47'0 0.0
2014-Nov-16 02:29N 34°53' E 119°47'0 0.1
2014-Nov-16 01:11N 34°53' E 119°47'0 0.1
2014-Nov-16 00:29N 34°54' E 119°47'0 0.0
2014-Nov-15 23:29N 34°54' E 119°47'0 0.0
2014-Nov-15 22:29N 34°54' E 119°47'0 0.0
2014-Nov-15 21:29N 34°54' E 119°47'0 0.0
2014-Nov-15 20:29N 34°54' E 119°47'0 0.0
2014-Nov-15 19:29N 34°54' E 119°47'0 0.0
2014-Nov-15 18:29N 34°54' E 119°47'0 0.0
2014-Nov-15 17:29N 34°53' E 119°47'0 0.1
2014-Nov-15 16:29N 34°53' E 119°47'0 0.0
2014-Nov-15 15:17N 34°53' E 119°47'0 0.4
2014-Nov-15 14:32N 34°54' E 119°47'264 8.8
2014-Nov-14 08:29N 31°06' E 122°26'1010.5
2014-Nov-14 07:34N 31°08' E 122°15'9 9.4
2014-Nov-14 06:34N 31°14' E 122°06'10 9.6
2014-Nov-14 05:33N 31°16' E 121°55'1111.2
2014-Nov-14 04:34N 31°19' E 121°43'1110.9
2014-Nov-14 03:33N 31°25' E 121°32'8 7.6
2014-Nov-14 02:34N 31°30' E 121°25'1211.6
2014-Nov-14 01:33N 31°38' E 121°15'7 6.3
2014-Nov-14 00:30N 31°42' E 121°09'0 0.0
2014-Nov-13 23:30N 31°42' E 121°09'0 0.0
2014-Nov-13 22:33N 31°42' E 121°09'0 0.0
2014-Nov-13 21:33N 31°42' E 121°09'0 0.0
2014-Nov-13 20:33N 31°42' E 121°09'0 0.0
2014-Nov-13 19:33N 31°42' E 121°09'0 0.1
2014-Nov-13 18:33N 31°42' E 121°09'0 0.1
2014-Nov-13 17:33N 31°42' E 121°09'0 0.0
2014-Nov-13 16:30N 31°42' E 121°09'0 0.0
2014-Nov-13 15:30N 31°42' E 121°09'0 0.0
2014-Nov-13 14:33N 31°42' E 121°09'0 0.0
2014-Nov-13 13:33N 31°42' E 121°09'0 0.0
2014-Nov-13 11:30N 31°42' E 121°09'0 0.0
2014-Nov-13 10:18N 31°42' E 121°09'0 0.0
2014-Nov-13 09:27N 31°42' E 121°09'0 0.0
2014-Nov-13 08:33N 31°42' E 121°09'0 0.0
2014-Nov-13 07:33N 31°42' E 121°09'0 0.0
2014-Nov-13 06:33N 31°42' E 121°09'0 0.0
2014-Nov-13 05:09N 31°42' E 121°09'0 0.0
2014-Nov-13 04:27N 31°42' E 121°09'0 0.0
2014-Nov-13 03:21N 31°42' E 121°09'0 0.0
2014-Nov-13 02:16N 31°42' E 121°09'0 0.0
2014-Nov-13 01:09N 31°42' E 121°09'0 0.0
2014-Nov-13 00:27N 31°42' E 121°09'0 0.0
2014-Nov-12 23:33N 31°42' E 121°09'0 0.0
2014-Nov-12 22:27N 31°42' E 121°09'0 0.0
2014-Nov-12 21:33N 31°42' E 121°09'0 0.0
2014-Nov-12 20:21N 31°42' E 121°09'0 0.0
2014-Nov-12 19:27N 31°42' E 121°09'0 0.0
2014-Nov-12 18:28N 31°42' E 121°09'0 0.0
2014-Nov-12 17:28N 31°42' E 121°09'0 0.0
2014-Nov-12 16:27N 31°42' E 121°09'0 0.0
2014-Nov-12 15:33N 31°42' E 121°09'0 0.0
2014-Nov-12 13:09N 31°42' E 121°09'0 0.1
2014-Nov-12 12:33N 31°42' E 121°09'0 0.0
2014-Nov-12 09:15N 31°42' E 121°09'0 0.0
2014-Nov-12 08:09N 31°42' E 121°09'0 0.1
2014-Nov-12 07:34N 31°42' E 121°09'0 0.0
2014-Nov-12 06:27N 31°42' E 121°09'0 0.0
2014-Nov-12 05:21N 31°42' E 121°09'0 0.0
2014-Nov-12 03:21N 31°42' E 121°09'0 0.0
2014-Nov-12 02:33N 31°42' E 121°09'0 0.0
2014-Nov-12 01:03N 31°42' E 121°09'0 0.0
2014-Nov-12 00:34N 31°42' E 121°09'0 0.0
2014-Nov-11 23:27N 31°42' E 121°09'0 0.0
2014-Nov-11 21:27N 31°42' E 121°09'0 0.0
2014-Nov-11 19:09N 31°42' E 121°09'0 0.1
2014-Nov-11 18:33N 31°42' E 121°09'0 0.0
2014-Nov-11 17:21N 31°42' E 121°09'0 0.0
2014-Nov-11 16:21N 31°42' E 121°09'0 0.0
2014-Nov-11 15:33N 31°42' E 121°09'0 0.0
2014-Nov-11 14:33N 31°42' E 121°09'0 0.0
2014-Nov-11 13:21N 31°42' E 121°09'0 0.1
2014-Nov-11 12:33N 31°42' E 121°09'0 0.0
2014-Nov-11 11:27N 31°42' E 121°09'0 0.0
2014-Nov-11 10:21N 31°42' E 121°09'0 0.0
2014-Nov-11 09:27N 31°42' E 121°09'0 0.0
2014-Nov-11 08:33N 31°42' E 121°09'0 0.0
2014-Nov-11 07:21N 31°42' E 121°09'0 0.0
2014-Nov-11 06:27N 31°42' E 121°09'0 0.0
2014-Nov-11 05:33N 31°42' E 121°09'0 0.0
2014-Nov-11 04:21N 31°42' E 121°09'0 0.0
2014-Nov-11 03:15N 31°42' E 121°09'0 0.1
2014-Nov-11 02:27N 31°42' E 121°09'0 0.0
2014-Nov-11 00:33N 31°42' E 121°09'0 0.0
2014-Nov-10 23:15N 31°42' E 121°09'0 0.0
2014-Nov-10 22:03N 31°42' E 121°09'0 0.0
2014-Nov-10 21:09N 31°42' E 121°09'0 0.0
2014-Nov-10 20:27N 31°42' E 121°09'0 0.0
2014-Nov-10 19:27N 31°42' E 121°09'0 0.0
2014-Nov-10 18:30N 31°42' E 121°09'0 0.0
2014-Nov-10 17:33N 31°42' E 121°09'0 0.0
2014-Nov-10 16:21N 31°42' E 121°09'0 0.0
2014-Nov-10 14:27N 31°42' E 121°09'0 0.0
2014-Nov-10 12:27N 31°42' E 121°09'0 0.0
2014-Nov-10 11:33N 31°42' E 121°09'0 0.0
2014-Nov-10 10:33N 31°42' E 121°09'  
Track history (hours):
 
Tides and Currents Weather Stations Pressure Air Temp Water Temp Dewpoint Dewpoint Depression Visibility Wind Speed Wind Dir Waves Ship Positions

Beautiful Rena

Last reported at 2014-Nov-20 10:10 UTC. Time now 2014-Nov-21 16:17 UTC.
Position N 34°55' E 119°54'.

Length 190 m; draft 12.7 m.

Type: Cargo ship. MMSI: 311030200.

Date/timePositionNaut miles runAvg speedWind from/ knotsBaromVisibWave heightAir tempDewpointWater temp
2014-Nov-20 10:10N 34°55' E 119°54'711.6
2014-Nov-20 09:32N 34°51' E 119°47'10 9.9
2014-Nov-20 08:33N 34°47' E 119°36'10 9.6
2014-Nov-20 07:33N 34°45' E 119°25'2 1.5
2014-Nov-20 06:31N 34°45' E 119°23'0 0.0
2014-Nov-20 05:25N 34°45' E 119°23'0 0.0
2014-Nov-20 04:31N 34°45' E 119°23'0 0.0
2014-Nov-20 03:31N 34°45' E 119°23'0 0.0
2014-Nov-20 02:25N 34°45' E 119°23'0 0.0
2014-Nov-20 01:31N 34°45' E 119°23'0 0.0
2014-Nov-20 00:25N 34°45' E 119°23'0 0.0
2014-Nov-19 23:31N 34°45' E 119°23'0 0.0
2014-Nov-19 22:31N 34°45' E 119°23'0 0.0
2014-Nov-19 21:31N 34°45' E 119°23'0 0.0
2014-Nov-19 20:31N 34°45' E 119°23'0 0.0
2014-Nov-19 19:31N 34°45' E 119°23'0 0.0
2014-Nov-19 18:31N 34°45' E 119°23'0 0.0
2014-Nov-19 17:31N 34°45' E 119°23'0 0.0
2014-Nov-19 16:31N 34°45' E 119°23'0 0.0
2014-Nov-19 15:31N 34°45' E 119°23'0 0.0
2014-Nov-19 14:31N 34°45' E 119°23'0 0.0
2014-Nov-19 13:25N 34°45' E 119°23'0 0.0
2014-Nov-19 12:31N 34°45' E 119°23'0 0.0
2014-Nov-19 11:31N 34°45' E 119°23'0 0.0
2014-Nov-19 10:31N 34°45' E 119°23'0 0.0
2014-Nov-19 09:31N 34°45' E 119°23'0 0.0
2014-Nov-19 08:31N 34°45' E 119°23'0 0.0
2014-Nov-19 07:30N 34°45' E 119°23'0 0.0
2014-Nov-19 06:31N 34°45' E 119°23'0 0.0
2014-Nov-19 05:31N 34°45' E 119°23'0 0.0
2014-Nov-19 04:31N 34°45' E 119°23'0 0.0
2014-Nov-19 03:30N 34°45' E 119°23'0 0.0
2014-Nov-19 02:31N 34°45' E 119°23'0 0.0
2014-Nov-19 01:31N 34°45' E 119°23'0 0.0
2014-Nov-19 00:31N 34°45' E 119°23'0 0.0
2014-Nov-18 23:31N 34°45' E 119°23'0 0.0
2014-Nov-18 22:31N 34°45' E 119°23'0 0.0
2014-Nov-18 21:25N 34°45' E 119°23'0 0.0
2014-Nov-18 20:31N 34°45' E 119°23'0 0.0
2014-Nov-18 19:31N 34°45' E 119°23'0 0.0
2014-Nov-18 18:25N 34°45' E 119°23'0 0.0
2014-Nov-18 17:31N 34°45' E 119°23'0 0.0
2014-Nov-18 16:30N 34°45' E 119°23'0 0.0
2014-Nov-18 15:25N 34°45' E 119°23'0 0.0
2014-Nov-18 14:31N 34°45' E 119°23'0 0.0
2014-Nov-18 13:31N 34°45' E 119°23'0 0.0
2014-Nov-18 12:25N 34°45' E 119°23'0 0.0
2014-Nov-18 11:31N 34°45' E 119°23'0 0.0
2014-Nov-18 09:19N 34°45' E 119°23'0 0.0
2014-Nov-18 08:25N 34°45' E 119°23'0 0.0
2014-Nov-18 07:30N 34°45' E 119°23'0 0.0
2014-Nov-18 06:31N 34°45' E 119°23'0 0.0
2014-Nov-18 05:19N 34°45' E 119°23'0 0.0
2014-Nov-18 04:25N 34°45' E 119°23'0 0.0
2014-Nov-18 03:30N 34°45' E 119°23'0 0.0
2014-Nov-18 02:31N 34°45' E 119°23'0 0.0
2014-Nov-18 01:31N 34°45' E 119°23'0 0.0
2014-Nov-18 00:31N 34°45' E 119°23'0 0.0
2014-Nov-17 23:31N 34°45' E 119°23'0 0.0
2014-Nov-17 22:30N 34°45' E 119°23'0 0.0
2014-Nov-17 21:31N 34°45' E 119°23'0 0.0
2014-Nov-17 20:25N 34°45' E 119°23'0 0.0
2014-Nov-17 19:31N 34°45' E 119°23'0 0.0
2014-Nov-17 18:31N 34°45' E 119°23'0 0.0
2014-Nov-17 17:31N 34°45' E 119°23'0 0.0
2014-Nov-17 16:31N 34°45' E 119°23'0 0.0
2014-Nov-17 15:31N 34°45' E 119°23'0 0.0
2014-Nov-17 14:31N 34°45' E 119°23'0 0.0
2014-Nov-17 13:31N 34°45' E 119°23'0 0.0
2014-Nov-17 12:30N 34°45' E 119°23'0 0.0
2014-Nov-17 11:31N 34°45' E 119°23'0 0.0
2014-Nov-17 10:31N 34°45' E 119°23'0 0.0
2014-Nov-17 09:31N 34°45' E 119°23'0 0.0
2014-Nov-17 08:31N 34°45' E 119°23'0 0.0
2014-Nov-17 07:33N 34°45' E 119°23'5 4.8
2014-Nov-17 06:33N 34°45' E 119°28'9 8.9
2014-Nov-17 05:33N 34°48' E 119°39'6 6.1
2014-Nov-17 04:33N 34°51' E 119°45'3 0.7
2014-Nov-17 00:29N 34°53' E 119°47'0 0.0
2014-Nov-16 22:17N 34°53' E 119°47'0 0.0
2014-Nov-16 21:29N 34°53' E 119°47'0 0.0
2014-Nov-16 20:23N 34°53' E 119°47'0 0.0
2014-Nov-16 19:05N 34°53' E 119°47'0 0.1
2014-Nov-16 18:29N 34°53' E 119°47'0 0.0
2014-Nov-16 17:29N 34°53' E 119°47'0 0.0
2014-Nov-16 16:11N 34°53' E 119°47'0 0.1
2014-Nov-16 15:23N 34°53' E 119°47'0 0.0
2014-Nov-16 14:29N 34°53' E 119°47'0 0.1
2014-Nov-16 12:29N 34°53' E 119°47'0 0.0
2014-Nov-16 10:17N 34°54' E 119°47'0 0.0
2014-Nov-16 09:23N 34°54' E 119°47'0 0.0
2014-Nov-16 08:29N 34°54' E 119°47'0 0.0
2014-Nov-16 07:29N 34°54' E 119°47'0 0.0
2014-Nov-16 06:29N 34°53' E 119°47'0 0.1
2014-Nov-16 05:29N 34°53' E 119°47'0 0.0
2014-Nov-16 04:23N 34°53' E 119°47'0 0.1
2014-Nov-16 03:23N 34°53' E 119°47'0 0.0
2014-Nov-16 02:29N 34°53' E 119°47'0 0.1
2014-Nov-16 01:11N 34°53' E 119°47'0 0.1
2014-Nov-16 00:29N 34°54' E 119°47'0 0.0
2014-Nov-15 23:29N 34°54' E 119°47'0 0.0
2014-Nov-15 22:29N 34°54' E 119°47'0 0.0
2014-Nov-15 21:29N 34°54' E 119°47'0 0.0
2014-Nov-15 20:29N 34°54' E 119°47'0 0.0
2014-Nov-15 19:29N 34°54' E 119°47'0 0.0
2014-Nov-15 18:29N 34°54' E 119°47'0 0.0
2014-Nov-15 17:29N 34°53' E 119°47'0 0.1
2014-Nov-15 16:29N 34°53' E 119°47'0 0.0
2014-Nov-15 15:17N 34°53' E 119°47'0 0.4
2014-Nov-15 14:32N 34°54' E 119°47'264 8.8
2014-Nov-14 08:29N 31°06' E 122°26'1010.5
2014-Nov-14 07:34N 31°08' E 122°15'9 9.4
2014-Nov-14 06:34N 31°14' E 122°06'10 9.6
2014-Nov-14 05:33N 31°16' E 121°55'1111.2
2014-Nov-14 04:34N 31°19' E 121°43'1110.9
2014-Nov-14 03:33N 31°25' E 121°32'8 7.6
2014-Nov-14 02:34N 31°30' E 121°25'1211.6
2014-Nov-14 01:33N 31°38' E 121°15'7 6.3
2014-Nov-14 00:30N 31°42' E 121°09'0 0.0
2014-Nov-13 23:30N 31°42' E 121°09'0 0.0
2014-Nov-13 22:33N 31°42' E 121°09'0 0.0
2014-Nov-13 21:33N 31°42' E 121°09'0 0.0
2014-Nov-13 20:33N 31°42' E 121°09'0 0.0
2014-Nov-13 19:33N 31°42' E 121°09'0 0.1
2014-Nov-13 18:33N 31°42' E 121°09'0 0.1
2014-Nov-13 17:33N 31°42' E 121°09'0 0.0
2014-Nov-13 16:30N 31°42' E 121°09'0 0.0
2014-Nov-13 15:30N 31°42' E 121°09'0 0.0
2014-Nov-13 14:33N 31°42' E 121°09'0 0.0
2014-Nov-13 13:33N 31°42' E 121°09'0 0.0
2014-Nov-13 11:30N 31°42' E 121°09'0 0.0
2014-Nov-13 10:18N 31°42' E 121°09'0 0.0
2014-Nov-13 09:27N 31°42' E 121°09'0 0.0
2014-Nov-13 08:33N 31°42' E 121°09'0 0.0
2014-Nov-13 07:33N 31°42' E 121°09'0 0.0
2014-Nov-13 06:33N 31°42' E 121°09'0 0.0
2014-Nov-13 05:09N 31°42' E 121°09'0 0.0
2014-Nov-13 04:27N 31°42' E 121°09'0 0.0
2014-Nov-13 03:21N 31°42' E 121°09'0 0.0
2014-Nov-13 02:16N 31°42' E 121°09'0 0.0
2014-Nov-13 01:09N 31°42' E 121°09'0 0.0
2014-Nov-13 00:27N 31°42' E 121°09'0 0.0
2014-Nov-12 23:33N 31°42' E 121°09'0 0.0
2014-Nov-12 22:27N 31°42' E 121°09'0 0.0
2014-Nov-12 21:33N 31°42' E 121°09'0 0.0
2014-Nov-12 20:21N 31°42' E 121°09'0 0.0
2014-Nov-12 19:27N 31°42' E 121°09'0 0.0
2014-Nov-12 18:28N 31°42' E 121°09'0 0.0
2014-Nov-12 17:28N 31°42' E 121°09'0 0.0
2014-Nov-12 16:27N 31°42' E 121°09'0 0.0
2014-Nov-12 15:33N 31°42' E 121°09'0 0.0
2014-Nov-12 13:09N 31°42' E 121°09'0 0.1
2014-Nov-12 12:33N 31°42' E 121°09'0 0.0
2014-Nov-12 09:15N 31°42' E 121°09'0 0.0
2014-Nov-12 08:09N 31°42' E 121°09'0 0.1
2014-Nov-12 07:34N 31°42' E 121°09'0 0.0
2014-Nov-12 06:27N 31°42' E 121°09'0 0.0
2014-Nov-12 05:21N 31°42' E 121°09'0 0.0
2014-Nov-12 03:21N 31°42' E 121°09'0 0.0
2014-Nov-12 02:33N 31°42' E 121°09'0 0.0
2014-Nov-12 01:03N 31°42' E 121°09'0 0.0
2014-Nov-12 00:34N 31°42' E 121°09'0 0.0
2014-Nov-11 23:27N 31°42' E 121°09'0 0.0
2014-Nov-11 21:27N 31°42' E 121°09'0 0.0
2014-Nov-11 19:09N 31°42' E 121°09'0 0.1
2014-Nov-11 18:33N 31°42' E 121°09'0 0.0
2014-Nov-11 17:21N 31°42' E 121°09'0 0.0
2014-Nov-11 16:21N 31°42' E 121°09'0 0.0
2014-Nov-11 15:33N 31°42' E 121°09'0 0.0
2014-Nov-11 14:33N 31°42' E 121°09'0 0.0
2014-Nov-11 13:21N 31°42' E 121°09'0 0.1
2014-Nov-11 12:33N 31°42' E 121°09'0 0.0
2014-Nov-11 11:27N 31°42' E 121°09'0 0.0
2014-Nov-11 10:21N 31°42' E 121°09'0 0.0
2014-Nov-11 09:27N 31°42' E 121°09'0 0.0
2014-Nov-11 08:33N 31°42' E 121°09'0 0.0
2014-Nov-11 07:21N 31°42' E 121°09'0 0.0
2014-Nov-11 06:27N 31°42' E 121°09'0 0.0
2014-Nov-11 05:33N 31°42' E 121°09'0 0.0
2014-Nov-11 04:21N 31°42' E 121°09'0 0.0
2014-Nov-11 03:15N 31°42' E 121°09'0 0.1
2014-Nov-11 02:27N 31°42' E 121°09'0 0.0
2014-Nov-11 00:33N 31°42' E 121°09'0 0.0
2014-Nov-10 23:15N 31°42' E 121°09'0 0.0
2014-Nov-10 22:03N 31°42' E 121°09'0 0.0
2014-Nov-10 21:09N 31°42' E 121°09'0 0.0
2014-Nov-10 20:27N 31°42' E 121°09'0 0.0
2014-Nov-10 19:27N 31°42' E 121°09'0 0.0
2014-Nov-10 18:30N 31°42' E 121°09'0 0.0
2014-Nov-10 17:33N 31°42' E 121°09'0 0.0
2014-Nov-10 16:21N 31°42' E 121°09'0 0.0
2014-Nov-10 14:27N 31°42' E 121°09'0 0.0
2014-Nov-10 12:27N 31°42' E 121°09'0 0.0
2014-Nov-10 11:33N 31°42' E 121°09'0 0.0
2014-Nov-10 10:33N 31°42' E 121°09'  

Dump ship's entire track history